Nearby METAR Reports

 

KLXT - Lees Summit Muni, Missouri, USA
Distance from station: E 5mi, 9km
Updated: Sat, 22-Nov-2014 1:19am CST
NOT Current
Mist, Overcast
Mist, Overcast
 Wind from S
Wind: S 13 mph , 20 km/h
Temperature: 48°F , 9°C
Wind Chill: 43°F , 6°C
Dew Point: 46°F , 8°C
Humidity: 94%
Barometer: 30.04 inHg , 1017.3 hPa
Summary: Mist
Clouds: Overcast
Visibility: 1 3/4 miles , 5 km
Cloud details: Overcast 300 ft
2014/11/22 07:19 KLXT 220719Z AUTO 18011KT 1 3/4SM BR OVC003 09/08 A3004 RMK AO2 T00890083
KMKC - Kansas City/Dntn, Missouri, USA
Distance from station: NW 12mi, 19km
Updated: Sun, 23-Nov-2014 1:18pm CST
Light rain, Mist, Overcast
Light rain, Mist, Overcast
 Wind from calm
Wind: Calm
Temperature: 57°F , 14°C
Dew Point: 55°F , 13°C
Humidity: 94%
Barometer: 29.36 inHg , 994.2 hPa
Summary: Light rain, Mist
Clouds: Overcast
Visibility: 2 miles , 3 km
Cloud details: Partly cloudy 900 ft
Overcast 1800 ft
2014/11/23 19:18 KMKC 231918Z 00000KT 2SM -RA BR SCT009 OVC018 14/13 A2936 RMK AO2 RAB09 P0000 T01390128
 
KIXD - Olathe/Industria, Kansas, USA
Distance from station: WSW 25mi, 41km
Updated: Sun, 23-Nov-2014 1:30pm CST
Mist, Overcast
Mist, Overcast
 Wind from SW
Wind: SW 3 mph , 6 km/h
Temperature: 57°F , 14°C
Dew Point: 55°F , 13°C
Humidity: 94%
Barometer: 29.36 inHg , 994.2 hPa
Summary: Mist
Clouds: Overcast
Visibility: 5 miles , 8 km
Cloud details: Few Clouds 800 ft
Mostly cloudy 1600 ft
Overcast 4700 ft
2014/11/23 19:30 KIXD 231930Z 22003KT 5SM BR FEW008 BKN016 OVC047 14/13 A2936 RMK AO2 T01390128 $
KMCI - Kansas City/Intl, Missouri, USA
Distance from station: NW 26mi, 42km
Updated: Sun, 23-Nov-2014 1:14pm CST
Light rain, Mist, Overcast
Light rain, Mist, Overcast
 Wind from W
Wind: W 5 mph , 7 km/h
Temperature: 55°F , 13°C
Dew Point: 55°F , 13°C
Humidity: 100%
Barometer: 29.36 inHg , 994.2 hPa
Summary: Light rain, Mist
Clouds: Overcast
Visibility: 2 miles , 3 km
Cloud details: Partly cloudy 800 ft
Mostly cloudy 1300 ft
Overcast 3500 ft
2014/11/23 19:14 KMCI 231914Z 26004KT 2SM R19R/6000VP6000FT -RA BR SCT008 BKN013 OVC035 13/13 A2936 RMK AO2 SFC VIS 3 RAB1854 P0001 T01330128
 
KRCM - Warrensburg Skyh, Missouri, USA
Distance from station: ESE 38mi, 62km
Updated: Sun, 23-Nov-2014 1:15pm CST
Overcast
Overcast
 Wind from SE
Wind: SE 10 mph , 17 km/h
Temperature: 55°F , 13°C
Dew Point: 54°F , 12°C
Humidity: 94%
Barometer: 29.36 inHg , 994.2 hPa
Clouds: Overcast
Visibility: 7 miles , 11 km
Cloud details: Partly cloudy 900 ft
Overcast 4400 ft
2014/11/23 19:15 KRCM 231915Z AUTO 14009KT 7SM SCT009 OVC044 13/12 A2936 RMK AO2
KLWC - Lawrence, Kansas, USA
Distance from station: W 40mi, 65km
Updated: Sun, 23-Nov-2014 1:26pm CST
Light rain, Mist, Overcast
Light rain, Mist, Overcast
 Wind from NW
Wind: NW 7 mph , 11 km/h
Temperature: 55°F , 13°C
Dew Point: 54°F , 12°C
Humidity: 94%
Barometer: 29.36 inHg , 994.2 hPa
Summary: Light rain, Mist
Clouds: Overcast
Visibility: 1 mile , 2 km
Cloud details: Mostly cloudy 700 ft
Overcast 2100 ft
2014/11/23 19:26 KLWC 231926Z AUTO 32006KT 1SM -RA BR BKN007 OVC021 13/12 A2936 RMK AO2 RAB14 P0001 T01330122
 
KSZL - Whiteman Afb, Missouri, USA
Distance from station: ESE 53mi, 86km
Updated: Sun, 23-Nov-2014 1:33pm CST
Light drizzle, Mist, Overcast
Light drizzle, Mist, Overcast
 Wind from SSE
Wind: SSE 5 mph , 7 km/h
Temperature: 55°F , 13°C
Dew Point: 54°F , 12°C
Humidity: 94%
Barometer: 29.35 inHg , 993.9 hPa
Summary: Light drizzle, Mist
Clouds: Overcast
Visibility: 2 1/2 miles , 2 km
Cloud details: Mostly cloudy 300 ft
Overcast 1000 ft
2014/11/23 19:33 KSZL 231933Z AUTO 15004KT 2 1/2SM -DZ BR BKN003 OVC010 13/12 A2935 RMK AO2 VIS 2 1/2V3
KSTJ - St. Joseph, Missouri, USA
Distance from station: NNW 59mi, 95km
Updated: Sun, 23-Nov-2014 1:22pm CST
Light rain, Mist, Overcast
Light rain, Mist, Overcast
 Wind from WSW
Wind: WSW 3 mph , 6 km/h
Temperature: 55°F , 13°C
Dew Point: 55°F , 13°C
Humidity: 100%
Barometer: 29.36 inHg , 994.2 hPa
Summary: Light rain, Mist
Clouds: Overcast
Visibility: 3 miles , 5 km
Cloud details: Partly cloudy 900 ft
Mostly cloudy 3000 ft
Overcast 3900 ft
2014/11/23 19:22 KSTJ 231922Z 25003KT 3SM R35/6000VP6000FT -RA BR SCT009 BKN030 OVC039 13/13 A2936 RMK AO2 P0000 T01330128
 
KGLY - Clinton, Missouri, USA
Distance from station: SE 61mi, 98km
Updated: Sun, 23-Nov-2014 1:35pm CST
Overcast
Overcast
 Wind from SE
Wind: SE 6 mph , 9 km/h
Temperature: 57°F , 14°C
Dew Point: 55°F , 13°C
Humidity: 94%
Barometer: 29.36 inHg , 994.2 hPa
Clouds: Overcast
Visibility: 9 miles , 14 km
Cloud details: Partly cloudy 700 ft
Mostly cloudy 1300 ft
Overcast 2000 ft
2014/11/23 19:35 KGLY 231935Z AUTO 14005KT 9SM SCT007 BKN013 OVC020 14/13 A2936 RMK AO2
KFOE - Topeka/Forbes, Kansas, USA
Distance from station: W 64mi, 103km
Updated: Sun, 23-Nov-2014 1:32pm CST
Light rain, Mist, Overcast
Light rain, Mist, Overcast
 Wind from NW
Wind: NW 13 mph , 20 km/h
Temperature: 55°F , 13°C
Dew Point: 54°F , 12°C
Humidity: 94%
Barometer: 29.37 inHg , 994.6 hPa
Summary: Light rain, Mist
Clouds: Overcast
Visibility: 2 1/2 miles , 2 km
Cloud details: Overcast 900 ft
2014/11/23 19:32 KFOE 231932Z 32011KT 2 1/2SM -RA BR OVC009 13/12 A2937 RMK AO2 VIS 1 3/4V3 P0003 T01330117
 
KDMO - Sedalia, Missouri, USA
Distance from station: ESE 72mi, 116km
Updated: Sun, 23-Nov-2014 1:31pm CST
Mist, Overcast
Mist, Overcast
 Wind from SE
Wind: SE 6 mph , 9 km/h
Temperature: 55°F , 13°C
Dew Point: 54°F , 12°C
Humidity: 94%
Barometer: 29.37 inHg , 994.6 hPa
Summary: Mist
Clouds: Overcast
Visibility: 6 miles , 10 km
Cloud details: Overcast 400 ft
2014/11/23 19:31 KDMO 231931Z AUTO 14005KT 6SM BR OVC004 13/12 A2937 RMK AO2 RAE1858 CIG 003V007 P0000 T01330122
KCDJ - Chillicothe, Missouri, USA
Distance from station: NE 74mi, 120km
Updated: Sun, 23-Nov-2014 12:52pm CST

 Wind from varies
Wind: varies 3 mph , 6 km/h
Temperature: 55°F , 13°C
Dew Point: 54°F , 12°C
Humidity: 94%
Barometer: 29.40 inHg , 995.6 hPa
2014/11/23 18:52 KCDJ 231852Z AUTO VRB03KT 13/12 A2940 RMK AO1 SLP955 P0002 T01280122
 
KFNB - Falls City/Brenn, Nebraska, USA
Distance from station: NW 96mi, 154km
Updated: Sun, 23-Nov-2014 1:12pm CST
Overcast
Overcast
 Wind from NNW
Wind: NNW 22 mph , 35 km/h, Gust: 31 mph , 50 km/h
Temperature: 48°F , 9°C
Wind Chill: 41°F , 5°C
Dew Point: 43°F , 6°C
Humidity: 82%
Barometer: 29.40 inHg , 995.6 hPa
Clouds: Overcast
Visibility: 10 miles , 16 km
Cloud details: Overcast 1700 ft
2014/11/23 19:12 KFNB 231912Z AUTO 33019G27KT 10SM OVC017 09/06 A2940 RMK AO2 PK WND 33028/1859 RAE1857 P0000 T00890061
KVER - Boonville, Missouri, USA
Distance from station: E 96mi, 154km
Updated: Sun, 23-Nov-2014 1:15pm CST
Light drizzle, Overcast
Light drizzle, Overcast
 Wind from SSE
Wind: SSE 6 mph , 9 km/h
Temperature: 55°F , 13°C
Dew Point: 55°F , 13°C
Humidity: 100%
Barometer: 29.38 inHg , 994.9 hPa
Summary: Light Drizzle
Clouds: Overcast
Visibility: 7 miles , 11 km
Cloud details: Overcast 600 ft
2014/11/23 19:15 KVER 231915Z AUTO 16005KT 7SM -DZ OVC006 13/13 A2938 RMK AO2 T01310130